createdAt,value
2023-03-29T11:33:37.582Z,101340.97
2023-03-29T11:51:39.138Z,101317.50
2023-03-29T11:53:27.188Z,101313.06
2023-03-29T11:56:09.394Z,101307.66
2023-03-29T11:58:11.340Z,101308.31
2023-03-29T12:08:55.850Z,101314.41
2023-03-29T12:13:29.575Z,101310.66
2023-03-29T12:15:32.887Z,101298.44
2023-03-29T12:17:45.435Z,101309.81
2023-03-29T12:19:30.059Z,101302.88
2023-03-29T12:21:15.494Z,101293.97
2023-03-29T12:23:20.839Z,101298.22
2023-03-29T12:25:14.722Z,101286.50
2023-03-29T12:27:10.425Z,101289.91
2023-03-29T12:29:23.421Z,101296.81
2023-03-29T12:31:29.824Z,101294.31
2023-03-29T12:33:46.878Z,101286.13
2023-03-29T12:36:11.278Z,101289.56
2023-03-29T12:38:15.428Z,101278.88
2023-03-29T12:40:38.052Z,101282.25
2023-03-29T12:42:44.853Z,101288.25
2023-03-29T12:44:33.038Z,101282.03
2023-03-29T12:46:31.917Z,101287.19
2023-03-29T12:48:55.732Z,101285.44
2023-03-29T12:50:33.969Z,101277.50
2023-03-29T12:52:26.052Z,101282.66
2023-03-29T12:54:28.070Z,101275.78
2023-03-29T12:56:23.034Z,101281.91
2023-03-29T12:58:50.327Z,101272.09
2023-03-29T13:01:01.045Z,101267.69
2023-03-29T13:03:52.366Z,101260.69
2023-03-29T13:05:44.943Z,101252.09
2023-03-29T13:07:37.738Z,101255.50
2023-03-29T13:10:00.193Z,101251.91
2023-03-29T13:12:20.871Z,101246.53
2023-03-29T13:14:15.925Z,101241.22
2023-03-29T13:16:14.973Z,101246.75
2023-03-29T13:18:18.157Z,101230.97
2023-03-29T13:20:32.836Z,101233.63
2023-03-29T13:22:49.848Z,101229.28
2023-03-29T13:24:32.961Z,101233.41
2023-03-29T13:26:13.855Z,101214.72
2023-03-29T13:28:03.263Z,101212.78
2023-03-29T13:30:00.574Z,101200.22
2023-03-29T13:31:47.496Z,101200.06
2023-03-29T13:34:20.565Z,101203.50
2023-03-29T13:36:20.559Z,101201.59
2023-03-29T13:38:00.807Z,101200.56
2023-03-29T13:39:48.137Z,101190.72
2023-03-29T13:42:05.054Z,101191.63
2023-03-29T13:57:00.090Z,101184.25
2023-03-29T13:59:03.482Z,101164.75
2023-03-29T14:02:18.605Z,101172.59
2023-03-29T14:07:11.742Z,101166.56
2023-03-29T14:08:56.049Z,101169.94
2023-03-29T14:10:42.338Z,101165.50
2023-03-29T14:12:25.158Z,101161.13
2023-03-29T14:14:45.272Z,101160.44
2023-03-29T14:17:14.184Z,101156.84
2023-03-29T14:18:53.696Z,101152.41
2023-03-29T14:20:36.438Z,101149.91
2023-03-29T14:22:29.289Z,101150.75
2023-03-29T14:24:02.678Z,101158.63
2023-03-29T14:25:39.404Z,101160.38
2023-03-29T14:27:18.980Z,101163.84
2023-03-29T14:28:57.099Z,101160.16
2023-03-29T14:30:38.251Z,101163.63
2023-03-29T14:32:32.844Z,101152.91
2023-03-29T14:34:21.181Z,101157.16
2023-03-29T14:35:59.880Z,101148.47
2023-03-29T14:37:35.512Z,101152.75
2023-03-29T14:39:18.464Z,101140.38
2023-03-29T14:40:53.707Z,101143.94
2023-03-29T14:42:33.236Z,101132.41
2023-03-29T14:44:20.101Z,101129.69
2023-03-29T14:45:58.365Z,101127.88
2023-03-29T14:47:37.410Z,101126.13
2023-03-29T14:49:12.394Z,101132.38
2023-03-29T14:50:52.106Z,101124.50
2023-03-29T14:52:33.588Z,101123.78
2023-03-29T14:54:33.361Z,101121.00
2023-03-29T14:56:47.393Z,101125.53
2023-03-29T14:58:33.028Z,101115.06
2023-03-29T15:00:30.118Z,101115.91
2023-03-29T15:04:42.502Z,101111.69
2023-03-29T15:06:28.062Z,101113.41
2023-03-29T15:09:14.681Z,101104.66
2023-03-29T15:11:55.528Z,101098.66
2023-03-29T15:14:12.164Z,101102.19
2023-03-29T15:17:07.668Z,101096.91
2023-03-29T15:32:16.655Z,101055.25
2023-03-29T15:38:17.931Z,101048.81
2023-03-29T15:39:58.548Z,101044.38
2023-03-29T15:45:54.146Z,101026.38
2023-03-29T15:49:42.837Z,101011.16
2023-03-29T15:51:25.437Z,101014.72
2023-03-29T15:53:15.135Z,101017.22
2023-03-29T15:56:36.502Z,101011.94
2023-03-29T15:59:24.160Z,101016.44
2023-03-29T16:01:23.851Z,101020.09
2023-03-29T16:03:05.214Z,101015.97
2023-03-29T16:04:37.420Z,101014.28
2023-03-29T16:06:24.229Z,101014.41
2023-03-29T16:07:56.406Z,101016.97
2023-03-29T16:09:28.492Z,101006.50
2023-03-29T16:11:04.888Z,101008.22
2023-03-29T16:12:42.108Z,101007.41
2023-03-29T16:17:03.383Z,101003.13
2023-03-29T16:18:37.415Z,101000.53
2023-03-29T16:20:11.741Z,100998.03
2023-03-29T16:21:43.857Z,100990.06
2023-03-29T16:23:16.128Z,100987.47
2023-03-29T16:24:52.834Z,100990.97
2023-03-29T16:26:30.939Z,100976.06
2023-03-29T16:29:01.477Z,100974.31
2023-03-29T16:30:30.557Z,100972.53
2023-03-29T16:36:15.976Z,100958.50
2023-03-29T16:44:52.437Z,100956.97
2023-03-29T16:46:24.539Z,100943.88
2023-03-29T16:47:58.236Z,100949.97
2023-03-29T16:49:32.617Z,100945.53
2023-03-29T16:51:09.814Z,100949.06
2023-03-29T16:52:52.824Z,100950.75
2023-03-29T16:54:29.989Z,100948.97
2023-03-29T16:56:03.317Z,100951.72
2023-03-29T16:57:36.360Z,100942.94
2023-03-29T16:59:16.777Z,100940.41
2023-03-29T17:00:52.229Z,100943.91
2023-03-29T17:02:26.837Z,100949.31
2023-03-29T17:04:01.704Z,100947.50
2023-03-29T17:05:41.879Z,100950.09
2023-03-29T17:07:19.223Z,100944.75
2023-03-29T17:08:51.594Z,100941.25
2023-03-29T17:10:26.624Z,100939.50
2023-03-29T17:12:01.123Z,100930.69
2023-03-29T17:13:34.950Z,100943.88
2023-03-29T17:15:09.850Z,100936.81
2023-03-29T17:16:53.178Z,100937.66
2023-03-29T18:05:09.237Z,100883.16
2023-03-29T18:06:52.453Z,100889.31
